createdAt,value
2022-08-28T00:01:04.803Z,92.10
2022-08-28T00:06:03.663Z,92.10
2022-08-28T00:11:03.486Z,92.10
2022-08-28T00:16:02.051Z,92.10
2022-08-28T00:21:01.252Z,92.20
2022-08-28T00:25:59.703Z,92.40
2022-08-28T00:31:01.218Z,92.40
2022-08-28T00:36:01.014Z,92.50
2022-08-28T00:41:04.162Z,92.80
2022-08-28T00:46:09.279Z,92.80
2022-08-28T00:51:25.554Z,92.70
2022-08-28T00:56:24.272Z,92.60
2022-08-28T01:01:24.009Z,93.10
2022-08-28T01:06:22.669Z,92.80
2022-08-28T01:11:21.579Z,93.00
2022-08-28T01:16:23.045Z,92.90
2022-08-28T01:21:31.898Z,93.00
2022-08-28T01:26:32.063Z,92.80
2022-08-28T01:31:32.687Z,93.00
2022-08-28T01:36:33.465Z,93.00
2022-08-28T01:41:33.440Z,93.00
2022-08-28T01:46:32.267Z,93.20
2022-08-28T01:51:34.934Z,93.00
2022-08-28T01:56:35.107Z,93.30
2022-08-28T02:01:33.614Z,93.10
2022-08-28T02:06:32.799Z,93.20
2022-08-28T02:11:33.157Z,93.30
2022-08-28T02:16:32.894Z,93.30
2022-08-28T02:21:32.084Z,93.40
2022-08-28T02:26:31.912Z,93.30
2022-08-28T02:31:30.376Z,93.40
2022-08-28T02:36:31.068Z,93.30
2022-08-28T02:41:29.448Z,93.30
2022-08-28T02:46:27.883Z,93.50
2022-08-28T02:51:26.622Z,93.50
2022-08-28T02:56:26.316Z,93.70
2022-08-28T03:01:25.366Z,93.60
2022-08-28T03:06:23.980Z,93.60
2022-08-28T03:11:23.469Z,93.60
2022-08-28T03:16:25.196Z,93.60
2022-08-28T03:21:23.533Z,93.70
2022-08-28T03:26:24.044Z,93.80
2022-08-28T03:31:25.946Z,93.80
2022-08-28T03:36:26.725Z,93.80
2022-08-28T03:41:29.153Z,93.80
2022-08-28T03:46:32.755Z,93.90
2022-08-28T03:51:33.417Z,93.80
2022-08-28T03:56:32.608Z,93.80
2022-08-28T04:01:34.257Z,93.90
2022-08-28T04:06:32.725Z,93.90
2022-08-28T04:11:31.235Z,94.10
2022-08-28T04:16:31.542Z,93.80
2022-08-28T04:21:29.966Z,93.90
2022-08-28T04:26:29.768Z,93.70
2022-08-28T04:31:31.658Z,93.80
2022-08-28T04:36:33.628Z,93.70
2022-08-28T04:41:31.990Z,93.80
2022-08-28T04:46:31.199Z,93.90
2022-08-28T04:51:31.622Z,93.60
2022-08-28T04:56:31.220Z,93.80
2022-08-28T05:01:29.743Z,93.90
2022-08-28T05:06:31.686Z,93.90
2022-08-28T05:11:47.387Z,94.10
2022-08-28T05:16:49.156Z,94.10
2022-08-28T05:21:47.996Z,94.40
2022-08-28T05:26:48.501Z,94.50
2022-08-28T05:31:47.995Z,94.50
2022-08-28T05:36:46.514Z,94.60
2022-08-28T05:41:47.555Z,94.70
2022-08-28T05:46:48.280Z,94.80
2022-08-28T05:51:47.087Z,94.80
2022-08-28T05:56:47.949Z,94.90
2022-08-28T06:01:48.951Z,95.00
2022-08-28T06:06:49.640Z,94.90
2022-08-28T06:11:50.335Z,95.10
2022-08-28T06:16:52.627Z,95.10
2022-08-28T06:21:52.617Z,95.50
2022-08-28T06:26:53.210Z,95.20
2022-08-28T06:31:57.377Z,95.60
2022-08-28T06:36:56.083Z,95.50
2022-08-28T06:41:55.791Z,95.70
2022-08-28T06:46:55.177Z,95.80
2022-08-28T06:51:53.500Z,96.10
2022-08-28T06:56:52.249Z,96.00
2022-08-28T07:01:52.965Z,96.20
2022-08-28T07:06:54.475Z,96.20
2022-08-28T07:11:53.826Z,96.20
2022-08-28T07:16:53.590Z,96.20
2022-08-28T07:21:51.986Z,96.20
2022-08-28T07:26:50.418Z,96.60
2022-08-28T07:31:52.466Z,96.10
2022-08-28T07:36:52.368Z,96.40
2022-08-28T07:41:50.775Z,95.60
2022-08-28T07:46:49.099Z,95.60
2022-08-28T07:51:47.382Z,95.30
2022-08-28T07:56:47.250Z,95.30
2022-08-28T08:01:48.580Z,94.70
2022-08-28T08:06:47.843Z,94.60
2022-08-28T08:11:49.085Z,94.70
2022-08-28T08:16:48.681Z,94.50
2022-08-28T08:21:53.222Z,94.60
2022-08-28T08:26:59.865Z,94.40
2022-08-28T08:32:04.996Z,94.30
2022-08-28T08:37:04.300Z,94.40
2022-08-28T08:42:06.651Z,93.90
2022-08-28T08:47:14.846Z,92.80
2022-08-28T08:52:26.895Z,92.00
2022-08-28T08:57:27.102Z,92.20
2022-08-28T09:02:31.549Z,92.10
2022-08-28T09:07:38.938Z,92.50
2022-08-28T09:12:50.242Z,91.50
2022-08-28T09:17:52.800Z,91.20
2022-08-28T09:22:51.834Z,91.00
2022-08-28T09:27:53.880Z,90.70
2022-08-28T09:33:01.284Z,90.50
2022-08-28T09:38:19.205Z,90.40
2022-08-28T09:43:31.492Z,90.90
2022-08-28T09:48:39.796Z,87.80
2022-08-28T09:53:43.426Z,88.20
2022-08-28T09:58:45.739Z,88.60
2022-08-28T10:03:54.167Z,88.10
2022-08-28T10:09:03.795Z,87.40
2022-08-28T10:14:20.725Z,89.10
2022-08-28T10:19:28.959Z,87.70
2022-08-28T10:24:43.943Z,85.70
2022-08-28T10:29:54.168Z,85.50
2022-08-28T10:35:04.144Z,84.10
2022-08-28T10:40:06.111Z,82.10
2022-08-28T10:45:11.898Z,83.00
2022-08-28T10:50:20.224Z,84.80
2022-08-28T10:55:24.195Z,83.70
2022-08-28T11:00:27.428Z,83.30
2022-08-28T11:05:28.695Z,82.50
2022-08-28T11:10:51.021Z,82.30
2022-08-28T11:15:54.991Z,80.00
2022-08-28T11:20:59.446Z,80.20
2022-08-28T11:26:03.449Z,80.90
2022-08-28T11:31:43.457Z,80.50
2022-08-28T11:37:01.908Z,80.80
2022-08-28T11:42:36.659Z,81.80
2022-08-28T11:47:48.156Z,81.10
2022-08-28T11:53:19.032Z,79.30
2022-08-28T11:58:23.182Z,78.60
2022-08-28T12:03:31.386Z,76.30
2022-08-28T12:09:09.145Z,78.80
2022-08-28T12:14:10.015Z,79.40
2022-08-28T12:19:09.145Z,76.70
2022-08-28T12:24:19.753Z,76.80
2022-08-28T12:29:30.182Z,76.60
2022-08-28T12:34:37.702Z,77.80
2022-08-28T12:39:38.125Z,76.50
2022-08-28T12:44:38.281Z,77.20
2022-08-28T12:49:38.623Z,77.90
2022-08-28T12:54:36.895Z,75.30
2022-08-28T12:59:39.929Z,74.80
2022-08-28T13:04:40.928Z,75.30
2022-08-28T13:09:40.461Z,74.70
2022-08-28T13:14:43.281Z,73.40
2022-08-28T13:19:41.902Z,74.90
2022-08-28T13:24:44.107Z,72.50
2022-08-28T13:29:59.869Z,72.90
2022-08-28T13:35:16.675Z,72.40
2022-08-28T13:40:46.376Z,70.90
2022-08-28T13:45:43.417Z,69.30
2022-08-28T13:50:44.755Z,70.50
2022-08-28T13:55:45.469Z,70.50
2022-08-28T14:00:48.209Z,68.80
2022-08-28T14:05:46.671Z,69.90
2022-08-28T14:10:45.471Z,69.70
2022-08-28T14:15:45.676Z,70.10
2022-08-28T14:20:43.993Z,69.30
2022-08-28T14:25:43.863Z,72.50
2022-08-28T14:30:45.051Z,70.70
2022-08-28T14:35:48.744Z,70.40
2022-08-28T14:40:47.209Z,71.70
2022-08-28T14:45:48.678Z,71.80
2022-08-28T14:50:49.216Z,71.10
2022-08-28T14:55:50.776Z,71.20
2022-08-28T15:00:52.923Z,70.50
2022-08-28T15:06:01.681Z,71.40
2022-08-28T15:11:00.400Z,70.50
2022-08-28T15:16:05.637Z,69.20
2022-08-28T15:21:18.107Z,70.30
2022-08-28T15:26:16.618Z,69.40
2022-08-28T15:31:16.694Z,70.80
2022-08-28T15:36:15.369Z,71.90
2022-08-28T15:41:25.665Z,70.60
2022-08-28T15:46:25.391Z,70.70
2022-08-28T15:51:25.912Z,71.10
2022-08-28T15:56:24.578Z,69.10
2022-08-28T16:01:24.754Z,69.10
2022-08-28T16:06:24.060Z,69.20
2022-08-28T16:11:24.069Z,70.40
2022-08-28T16:16:22.602Z,69.70
2022-08-28T16:21:22.425Z,70.60
2022-08-28T16:26:20.806Z,69.40
2022-08-28T16:31:20.666Z,68.80
2022-08-28T16:36:19.885Z,68.80
2022-08-28T16:41:25.476Z,68.90
2022-08-28T16:46:27.419Z,69.30
2022-08-28T16:51:27.011Z,69.40
2022-08-28T16:56:26.791Z,69.50
2022-08-28T17:01:25.641Z,69.70
2022-08-28T17:06:30.915Z,68.80
2022-08-28T17:11:32.100Z,68.80
2022-08-28T17:16:32.424Z,68.80
2022-08-28T17:21:48.234Z,69.10
2022-08-28T17:26:49.216Z,70.20
2022-08-28T17:31:47.681Z,71.30
2022-08-28T17:36:46.108Z,71.90
2022-08-28T17:41:44.398Z,71.20
2022-08-28T17:46:44.248Z,72.30
2022-08-28T17:51:44.461Z,72.90
2022-08-28T17:56:42.999Z,72.90
2022-08-28T18:01:43.324Z,73.10
2022-08-28T18:06:43.115Z,73.30
2022-08-28T18:11:42.084Z,73.00
2022-08-28T18:16:40.538Z,74.30
2022-08-28T18:21:40.855Z,73.90
2022-08-28T18:26:39.150Z,74.40
2022-08-28T18:31:37.536Z,74.50
2022-08-28T18:36:35.893Z,75.20
2022-08-28T18:41:43.410Z,75.50
2022-08-28T18:46:43.941Z,75.30
2022-08-28T18:51:44.031Z,76.30
2022-08-28T18:56:43.782Z,76.30
2022-08-28T19:01:42.630Z,76.00
2022-08-28T19:06:42.426Z,76.90
2022-08-28T19:11:44.472Z,77.00
2022-08-28T19:16:42.866Z,78.00
2022-08-28T19:21:41.793Z,78.30
2022-08-28T19:26:40.379Z,79.10
2022-08-28T19:31:40.220Z,80.00
2022-08-28T19:36:39.978Z,79.90
2022-08-28T19:41:38.814Z,80.50
2022-08-28T19:46:39.892Z,80.60
2022-08-28T19:51:39.777Z,80.70
2022-08-28T19:56:38.696Z,80.80
2022-08-28T20:01:41.548Z,81.00
2022-08-28T20:06:40.026Z,81.80
2022-08-28T20:11:38.600Z,81.40
2022-08-28T20:16:41.340Z,81.00
2022-08-28T20:21:42.798Z,81.00
2022-08-28T20:26:42.067Z,81.40
2022-08-28T20:31:43.705Z,81.50
2022-08-28T20:36:41.955Z,81.50
2022-08-28T20:41:42.573Z,81.30
2022-08-28T20:46:42.518Z,82.10
2022-08-28T20:51:54.546Z,81.90
2022-08-28T20:56:54.784Z,82.00
2022-08-28T21:01:55.426Z,82.90
2022-08-28T21:06:53.718Z,82.80
2022-08-28T21:11:53.090Z,83.20
2022-08-28T21:16:51.403Z,82.90
2022-08-28T21:21:51.526Z,83.20
2022-08-28T21:26:52.350Z,83.70
2022-08-28T21:31:52.528Z,84.40
2022-08-28T21:36:53.598Z,84.60
2022-08-28T21:41:51.904Z,84.80
2022-08-28T21:46:50.183Z,84.40
2022-08-28T21:51:48.523Z,85.70
2022-08-28T21:56:58.526Z,85.40
2022-08-28T22:01:57.328Z,85.40
2022-08-28T22:06:56.201Z,86.20
2022-08-28T22:11:58.670Z,86.30
2022-08-28T22:16:57.210Z,86.40
2022-08-28T22:22:13.114Z,87.00
2022-08-28T22:27:14.383Z,87.20
2022-08-28T22:32:12.705Z,87.20
2022-08-28T22:37:11.613Z,87.80
2022-08-28T22:42:10.578Z,87.70
2022-08-28T22:47:10.613Z,88.20
2022-08-28T22:52:11.755Z,89.10
2022-08-28T22:57:10.912Z,88.80
2022-08-28T23:02:11.735Z,88.70
2022-08-28T23:07:10.148Z,89.30
2022-08-28T23:12:11.796Z,89.40
2022-08-28T23:17:11.396Z,89.90
2022-08-28T23:22:09.872Z,89.60
2022-08-28T23:27:32.400Z,90.10
2022-08-28T23:32:28.102Z,89.90
2022-08-28T23:37:26.724Z,90.00
2022-08-28T23:42:25.338Z,90.10
2022-08-28T23:47:24.866Z,90.20
2022-08-28T23:52:24.995Z,90.30
2022-08-28T23:57:23.751Z,90.40
